Language selection

Features

My Weather Profile Weather Topics  | 

West Coast Haida Gwaii - southern half: Past 24 Hour Conditions

 

East Dellwood - 46207

06:00 AM PST 23 January 2020Buoy position: 50.88N 129.93W
Disclaimer

This table is a summary of hourly weather conditions for the past 24 hours.
Please note that these observations might not always be representative of weather conditions over their associated marine area.

Date / Time
(PST)
Wind(knots) Wave height(m) Wave period(s) Pressure(kPa) Air tempC) Water tempC)
23 January 2020
6:00 SW 12 gust 13 2.9 8.0 100.1 8 8
5:00 SW 12 gust 13 3.1 9.0 100.0 8 8
4:00 SW 10 gust 13 3.0 9.0 99.9 8 8
3:00 SSW 6 gust 10 3.1 10.0 99.8 9 8
2:00 S 8 gust 10 3.4 8.0 99.8 9 8
1:00 SSE 10 gust 12 3.5 9.0 99.7 9 8
0:00 S 12 gust 13 3.6 8.0 99.8 9 8
22 January 2020
23:00 SSE 13 gust 17 4.1 10.0 99.8 9 8
22:00 SSE 12 gust 16 4.3 10.0 99.7 9 8
21:00 SSE 16 gust 17 4.8 10.0 99.8 9 8
20:00 SE 22 gust 25 4.9 10.0 99.7 9 8
19:00 SE 25 gust 31 5.9 10.0 99.6 9 8
18:00 SE 29 gust 37 5.9 10.0 99.6 8 8
17:00 SE 29 gust 35 6.1 11.0 99.7 8 8
16:00 SE 31 gust 39 6.2 10.0 99.8 8 8
15:00 SE 33 gust 43 6.4 10.0 99.8 8 8
14:00 SE 35 gust 43 6.3 9.0 99.8 8 8
13:00 SE 37 gust 45 5.5 10.0 99.8 8 8
12:00 SE 37 gust 46 4.7 8.0 99.9 8 8
11:00 ESE 37 gust 46 4.1 10.0 100.0 8 8
10:00 ESE 33 gust 43 3.8 10.0 100.0 7 8
9:00 SE 31 gust 37 3.4 10.0 100.2 7 8
8:00 SE 23 gust 27 3.5 11.0 100.2 8 8
7:00 SE 22 gust 27 3.5 10.0 100.3 8 8
6:00 SE 19 gust 23 3.6 9.0 100.3 8 8

Zoom-in to make a selection

Map of Pacific - North Coast marine weather areas Middle Nomad - 46004 South Nomad - 46036 Dixon Entrance Central - 46145 South Moresby - 46147 Nanakwa Shoal - 46181 North Hecate Strait - 46183 North Nomad - 46184 South Hecate Strait - 46185 West Sea Otter - 46204 West Dixon Entrance - 46205 East Dellwood - 46207 West Moresby - 46208 Sartine Island Cape St.James Kindakun Rocks Langara Island Masset Municipal Airport Rose Spit Sandspit Airport Bella Bella Airport Bella Coola Airport Bonilla Island Cathedral Point Cumshewa Island Grey Islet Holland Rock Lucy Islands Lightstation Prince Rupert Airport
Legend:
buoy Buoy
land station Land Station

Pacific - North Coast Area

Another Region

What we are doing

Date modified: